Time;durP1;ratioP1;P1;durP2;ratioP2;P2;SDS_P1;SDS_P2;PMS_P1;PMS_P2;Temp;Humidity;BMP_temperature;BMP_pressure;BME280_temperature;BME280_humidity;BME280_pressure;Samples;Min_cycle;Max_cycle;Signal;HPM_P1;HPM_P2
2020/12/19 00:02:07;;;;;;;18.60;10.40;;;6.50;99.90;;;;;;5061224;28;20029;-68
2020/12/19 00:04:33;;;;;;;14.82;10.63;;;6.50;99.90;;;;;;5062084;28;20036;-68
2020/12/19 00:06:59;;;;;;;14.10;10.25;;;6.50;99.90;;;;;;5063869;28;20063;-68
2020/12/19 00:09:25;;;;;;;15.65;10.60;;;6.50;99.90;;;;;;5060768;28;20458;-69
2020/12/19 00:11:51;;;;;;;16.77;11.38;;;6.50;99.90;;;;;;5060569;28;20119;-68
2020/12/19 00:14:18;;;;;;;14.80;11.05;;;6.50;99.90;;;;;;5069996;28;20059;-71
2020/12/19 00:16:43;;;;;;;19.60;12.05;;;6.50;99.90;;;;;;5061462;28;20427;-69
2020/12/19 00:19:09;;;;;;;15.90;12.27;;;6.50;99.90;;;;;;5065392;28;20108;-68
2020/12/19 00:21:35;;;;;;;16.55;11.85;;;6.40;99.90;;;;;;5064312;28;20028;-68
2020/12/19 00:24:03;;;;;;;18.05;10.88;;;6.40;99.90;;;;;;5060961;28;20025;-68
2020/12/19 00:26:36;;;;;;;15.25;11.23;;;6.40;99.90;;;;;;5061570;28;20041;-68
2020/12/19 00:29:03;;;;;;;17.40;12.05;;;6.40;99.90;;;;;;5061113;28;20017;-68
2020/12/19 00:31:29;;;;;;;19.42;11.63;;;6.40;99.90;;;;;;5065775;28;20115;-69
2020/12/19 00:33:55;;;;;;;19.55;12.27;;;6.40;99.90;;;;;;5061788;28;20112;-69
2020/12/19 00:36:21;;;;;;;16.80;11.60;;;6.40;99.90;;;;;;5062149;28;20024;-69
2020/12/19 00:38:46;;;;;;;14.80;10.95;;;6.40;99.90;;;;;;5062447;28;20075;-69
2020/12/19 00:41:21;;;;;;;16.60;12.13;;;6.40;99.90;;;;;;5062626;28;20064;-69
2020/12/19 00:43:46;;;;;;;17.48;12.30;;;6.40;99.90;;;;;;5059931;28;20036;-69
2020/12/19 00:46:13;;;;;;;18.88;12.68;;;6.50;99.90;;;;;;5058174;28;20384;-69
2020/12/19 00:48:41;;;;;;;19.83;11.88;;;6.30;99.90;;;;;;5064793;28;20092;-69
2020/12/19 00:51:18;;;;;;;15.95;11.90;;;6.30;99.90;;;;;;5058633;28;20024;-70
2020/12/19 00:53:45;;;;;;;17.50;11.55;;;6.30;99.90;;;;;;5057606;28;20469;-70
2020/12/19 00:56:23;;;;;;;20.73;12.13;;;6.30;99.90;;;;;;5062873;28;20444;-70
2020/12/19 00:58:50;;;;;;;16.95;12.25;;;6.30;99.90;;;;;;5066754;28;20024;-69
2020/12/19 01:01:17;;;;;;;18.67;12.07;;;6.30;99.90;;;;;;5056555;28;20090;-69
2020/12/19 01:03:43;;;;;;;16.45;11.55;;;6.30;99.90;;;;;;5060336;28;20048;-69
2020/12/19 01:06:13;;;;;;;17.13;12.30;;;6.30;99.90;;;;;;5068559;28;20024;-69
2020/12/19 01:08:39;;;;;;;18.30;12.10;;;6.30;99.90;;;;;;5071045;28;20078;-69
2020/12/19 01:11:04;;;;;;;17.70;11.60;;;6.30;99.90;;;;;;5059231;28;20020;-69
2020/12/19 01:13:30;;;;;;;18.85;11.32;;;6.30;99.90;;;;;;5062009;28;20100;-68
2020/12/19 01:15:55;;;;;;;18.80;11.55;;;6.30;99.90;;;;;;5068798;28;20095;-69
2020/12/19 01:18:21;;;;;;;18.40;11.73;;;6.30;99.90;;;;;;5064047;28;20076;-69
2020/12/19 01:20:46;;;;;;;16.05;11.38;;;6.30;99.90;;;;;;5061528;28;20071;-68
2020/12/19 01:23:12;;;;;;;14.30;11.02;;;6.30;99.90;;;;;;5064211;28;20095;-68
2020/12/19 01:25:37;;;;;;;17.73;11.88;;;6.30;99.90;;;;;;5061374;28;20345;-68
2020/12/19 01:28:03;;;;;;;15.13;10.80;;;6.30;99.90;;;;;;5058803;28;20488;-69
2020/12/19 01:30:28;;;;;;;18.80;10.60;;;6.30;99.90;;;;;;5061322;28;20036;-69
2020/12/19 01:32:54;;;;;;;18.98;11.18;;;6.30;99.90;;;;;;5062385;28;20025;-68
2020/12/19 01:35:20;;;;;;;15.90;11.13;;;6.30;99.90;;;;;;5058697;28;20009;-68
2020/12/19 01:37:45;;;;;;;16.17;10.90;;;6.30;99.90;;;;;;5062087;28;20045;-69
2020/12/19 01:40:11;;;;;;;19.00;11.98;;;6.30;99.90;;;;;;5062462;28;20467;-70
2020/12/19 01:42:36;;;;;;;14.75;10.93;;;6.30;99.90;;;;;;5057088;28;20059;-69
2020/12/19 01:45:03;;;;;;;21.25;11.30;;;6.30;99.90;;;;;;5063643;28;20024;-70
2020/12/19 01:47:33;;;;;;;17.10;11.63;;;6.30;99.90;;;;;;5062533;28;20118;-69
2020/12/19 01:49:59;;;;;;;17.33;11.53;;;6.30;99.90;;;;;;5059271;28;20032;-68
2020/12/19 01:52:27;;;;;;;17.27;10.68;;;6.30;99.90;;;;;;5058206;28;20289;-69
2020/12/19 01:54:52;;;;;;;14.38;10.55;;;6.20;99.90;;;;;;5065763;28;20043;-70
2020/12/19 01:57:21;;;;;;;18.83;12.32;;;6.30;99.90;;;;;;5069381;28;20028;-69
2020/12/19 01:59:47;;;;;;;18.27;12.27;;;6.30;99.90;;;;;;5057713;28;20036;-69
2020/12/19 02:02:13;;;;;;;18.15;12.40;;;6.30;99.90;;;;;;5067306;28;20027;-68
2020/12/19 02:04:39;;;;;;;19.13;11.32;;;6.20;99.90;;;;;;5060862;28;20040;-69
2020/12/19 02:07:05;;;;;;;20.08;11.98;;;6.20;99.90;;;;;;5062753;28;20054;-69
2020/12/19 02:09:37;;;;;;;16.75;11.40;;;6.20;99.90;;;;;;5066747;28;20032;-69
2020/12/19 02:12:03;;;;;;;16.98;11.15;;;6.20;99.90;;;;;;5068822;28;20041;-69
2020/12/19 02:14:30;;;;;;;19.65;11.27;;;6.20;99.90;;;;;;5061076;28;20044;-69
2020/12/19 02:16:59;;;;;;;14.55;11.15;;;6.20;99.90;;;;;;5062792;28;20394;-69
2020/12/19 02:19:26;;;;;;;21.73;12.60;;;6.20;99.90;;;;;;5065493;28;20798;-69
2020/12/19 02:21:53;;;;;;;15.68;11.98;;;6.20;99.90;;;;;;5071067;28;20028;-68
2020/12/19 02:24:18;;;;;;;18.88;11.35;;;6.20;99.90;;;;;;5067200;28;20020;-69
2020/12/19 02:26:53;;;;;;;18.30;11.98;;;6.20;99.90;;;;;;5065495;28;20041;-68
2020/12/19 02:29:21;;;;;;;17.63;11.65;;;6.10;99.90;;;;;;5065014;28;20131;-69
2020/12/19 02:31:47;;;;;;;17.60;12.23;;;6.10;99.90;;;;;;5059278;28;20096;-70
2020/12/19 02:34:13;;;;;;;19.42;12.15;;;6.10;99.90;;;;;;5066277;28;20029;-68
2020/12/19 02:36:39;;;;;;;17.48;11.57;;;6.10;99.90;;;;;;5063497;28;20537;-68
2020/12/19 02:39:06;;;;;;;19.08;12.25;;;6.10;99.90;;;;;;5064461;28;20546;-68
2020/12/19 02:41:39;;;;;;;18.52;12.30;;;6.10;99.90;;;;;;5068913;28;20029;-69
2020/12/19 02:44:07;;;;;;;20.67;12.02;;;6.10;99.90;;;;;;5069774;28;20031;-69
2020/12/19 02:46:33;;;;;;;16.15;11.27;;;6.10;99.90;;;;;;5070376;28;20075;-68
2020/12/19 02:48:58;;;;;;;18.60;12.40;;;6.10;99.90;;;;;;5071402;28;20387;-69
2020/12/19 02:51:24;;;;;;;19.60;12.05;;;6.00;99.90;;;;;;5061669;28;20553;-70
2020/12/19 02:53:50;;;;;;;17.55;11.98;;;6.10;99.90;;;;;;5067753;28;20079;-70
2020/12/19 02:56:16;;;;;;;18.60;12.52;;;6.00;99.90;;;;;;5064291;28;20063;-69
2020/12/19 02:59:15;;;;;;;17.98;12.05;;;6.00;99.90;;;;;;5062167;28;20529;-69
2020/12/19 03:01:40;;;;;;;18.15;12.43;;;6.00;99.90;;;;;;5063692;28;20032;-69
2020/12/19 03:04:06;;;;;;;17.13;11.48;;;6.00;99.90;;;;;;5065650;28;20400;-69
2020/12/19 03:06:33;;;;;;;22.33;11.70;;;6.00;99.90;;;;;;5064776;28;20498;-69
2020/12/19 03:08:58;;;;;;;17.63;11.82;;;6.00;99.90;;;;;;5065336;28;20119;-69
2020/12/19 03:11:24;;;;;;;16.85;11.32;;;6.00;99.90;;;;;;5060030;28;20029;-70
2020/12/19 03:13:50;;;;;;;17.65;11.30;;;6.00;99.90;;;;;;5062103;28;20093;-72
2020/12/19 03:16:15;;;;;;;21.70;12.50;;;5.90;99.90;;;;;;5062931;28;20028;-69
2020/12/19 03:18:41;;;;;;;19.65;12.10;;;6.00;99.90;;;;;;5060498;28;20377;-69
2020/12/19 03:21:06;;;;;;;14.88;10.85;;;5.90;99.90;;;;;;5070073;28;20025;-69
2020/12/19 03:23:32;;;;;;;16.50;10.70;;;5.90;99.90;;;;;;5068782;28;20432;-69
2020/12/19 03:25:57;;;;;;;15.63;11.48;;;5.90;99.90;;;;;;5064325;28;20357;-69
2020/12/19 03:28:23;;;;;;;15.20;11.05;;;5.90;99.90;;;;;;5064266;28;20044;-70
2020/12/19 03:30:48;;;;;;;17.33;10.80;;;5.90;99.90;;;;;;5069727;28;20025;-69
2020/12/19 03:33:14;;;;;;;17.30;11.15;;;6.00;99.90;;;;;;5067418;28;20024;-69
2020/12/19 03:35:40;;;;;;;20.73;11.57;;;6.00;99.90;;;;;;5058697;28;20481;-71
2020/12/19 03:38:07;;;;;;;20.67;11.45;;;5.90;99.90;;;;;;5060065;28;20483;-70
2020/12/19 03:40:33;;;;;;;15.48;11.10;;;5.90;99.90;;;;;;5063087;28;20038;-69
2020/12/19 03:42:58;;;;;;;18.88;11.10;;;5.90;99.90;;;;;;5068980;28;20431;-70
2020/12/19 03:45:24;;;;;;;15.75;11.38;;;5.90;99.90;;;;;;5068971;28;20031;-68
2020/12/19 03:47:49;;;;;;;13.93;10.30;;;5.90;99.90;;;;;;5063581;28;20446;-69
2020/12/19 03:50:15;;;;;;;16.35;10.68;;;6.00;99.90;;;;;;5065113;28;20057;-69
2020/12/19 03:52:40;;;;;;;17.02;11.25;;;5.90;99.90;;;;;;5062059;28;20107;-69
2020/12/19 03:55:06;;;;;;;18.02;11.02;;;5.90;99.90;;;;;;5062984;28;20028;-69
2020/12/19 03:57:31;;;;;;;16.83;11.55;;;5.90;99.90;;;;;;5058945;28;20440;-70
2020/12/19 03:59:57;;;;;;;18.67;11.32;;;5.90;99.90;;;;;;5063211;28;20059;-69
2020/12/19 04:02:22;;;;;;;18.55;11.32;;;5.90;99.90;;;;;;5062640;28;20021;-69
2020/12/19 04:04:48;;;;;;;18.20;10.40;;;5.90;99.90;;;;;;5062897;28;20054;-69
2020/12/19 04:07:14;;;;;;;16.10;10.65;;;5.90;99.90;;;;;;5058795;28;20105;-69
2020/12/19 04:09:39;;;;;;;14.98;10.38;;;5.90;99.90;;;;;;5059116;28;20025;-70
2020/12/19 04:12:06;;;;;;;18.88;11.73;;;5.90;99.90;;;;;;5061413;28;20386;-69
2020/12/19 04:14:39;;;;;;;16.67;11.07;;;5.90;99.90;;;;;;5068550;28;20032;-69
2020/12/19 04:17:07;;;;;;;17.65;10.40;;;5.80;99.90;;;;;;5060831;28;20477;-69
2020/12/19 04:19:33;;;;;;;16.35;10.65;;;5.80;99.90;;;;;;5061985;28;20040;-69
2020/12/19 04:21:59;;;;;;;16.35;11.18;;;5.80;99.90;;;;;;5056902;28;20028;-69
2020/12/19 04:24:24;;;;;;;14.50;10.60;;;5.80;99.90;;;;;;5071435;28;20024;-69
2020/12/19 04:26:50;;;;;;;17.02;10.75;;;5.80;99.90;;;;;;5059538;28;20067;-69
2020/12/19 04:29:16;;;;;;;15.50;11.32;;;5.70;99.90;;;;;;5062473;28;20045;-69
2020/12/19 04:31:41;;;;;;;12.98;10.30;;;5.70;99.90;;;;;;5064779;28;20097;-69
2020/12/19 04:34:07;;;;;;;15.38;11.00;;;5.70;99.90;;;;;;5062553;28;20024;-69
2020/12/19 04:36:32;;;;;;;16.88;10.40;;;5.70;99.90;;;;;;5064363;28;20111;-70
2020/12/19 04:38:58;;;;;;;15.23;10.82;;;5.70;99.90;;;;;;5059904;28;20484;-69
2020/12/19 04:41:23;;;;;;;15.50;10.80;;;5.70;99.90;;;;;;5063020;28;20166;-69
2020/12/19 04:43:49;;;;;;;17.17;11.20;;;5.70;99.90;;;;;;5071006;28;20162;-70
2020/12/19 04:46:17;;;;;;;14.57;10.60;;;5.70;99.90;;;;;;5059954;28;20103;-70
2020/12/19 04:48:44;;;;;;;15.25;9.85;;;5.70;99.90;;;;;;5061293;28;20044;-69
2020/12/19 04:51:11;;;;;;;16.33;11.00;;;5.70;99.90;;;;;;5062394;28;20073;-69
2020/12/19 04:53:37;;;;;;;18.35;10.35;;;5.70;99.90;;;;;;5063804;28;20028;-69
2020/12/19 04:56:05;;;;;;;16.67;10.63;;;5.70;99.90;;;;;;5059511;28;20112;-68
2020/12/19 04:58:30;;;;;;;17.13;10.63;;;5.70;99.90;;;;;;5063031;28;20033;-70
2020/12/19 05:00:56;;;;;;;14.45;9.73;;;5.70;99.90;;;;;;5067079;28;20036;-69
2020/12/19 05:03:21;;;;;;;18.17;10.85;;;5.70;99.90;;;;;;5060246;28;20058;-70
2020/12/19 05:05:47;;;;;;;14.23;10.18;;;5.70;99.90;;;;;;5064745;28;20074;-70
2020/12/19 05:08:12;;;;;;;19.05;9.48;;;5.60;99.90;;;;;;5060649;28;20384;-70
2020/12/19 05:10:39;;;;;;;15.27;9.98;;;5.60;99.90;;;;;;5068287;28;20031;-69
2020/12/19 05:13:04;;;;;;;18.95;10.73;;;5.70;99.90;;;;;;5061694;28;20029;-69
2020/12/19 05:15:30;;;;;;;14.18;10.13;;;5.70;99.90;;;;;;5057743;28;20531;-69
2020/12/19 05:17:58;;;;;;;16.30;11.23;;;5.70;99.90;;;;;;5058605;28;20024;-69
2020/12/19 05:20:26;;;;;;;20.70;10.57;;;5.70;99.90;;;;;;5057805;28;20506;-69
2020/12/19 05:22:52;;;;;;;14.43;10.27;;;5.70;99.90;;;;;;5056623;28;20035;-69
2020/12/19 05:25:20;;;;;;;15.25;11.15;;;5.70;99.90;;;;;;5065788;28;20064;-69
2020/12/19 05:27:46;;;;;;;17.67;11.88;;;5.70;99.90;;;;;;5060635;28;20099;-69
2020/12/19 05:30:13;;;;;;;15.75;11.20;;;5.70;99.90;;;;;;5060326;28;20017;-70
2020/12/19 05:32:44;;;;;;;16.65;10.25;;;5.70;99.90;;;;;;5061067;28;20024;-69
2020/12/19 05:35:10;;;;;;;13.73;10.95;;;5.70;99.90;;;;;;5060092;28;20830;-69
2020/12/19 05:37:37;;;;;;;20.10;10.45;;;5.70;99.90;;;;;;5064112;28;20064;-69
2020/12/19 05:40:07;;;;;;;15.68;10.10;;;5.70;99.90;;;;;;5063925;28;20465;-69
2020/12/19 05:42:33;;;;;;;18.90;11.35;;;5.70;99.90;;;;;;5071773;28;20086;-69
2020/12/19 05:44:58;;;;;;;16.83;11.07;;;5.80;99.90;;;;;;5071839;28;20033;-69
2020/12/19 05:47:24;;;;;;;19.60;10.45;;;5.80;99.90;;;;;;5059999;28;20029;-69
2020/12/19 05:49:49;;;;;;;16.23;10.48;;;5.80;99.90;;;;;;5063944;28;20441;-69
2020/12/19 05:52:21;;;;;;;18.45;11.10;;;5.90;99.90;;;;;;5059738;28;20035;-69
2020/12/19 05:54:52;;;;;;;17.65;10.55;;;5.90;99.90;;;;;;5057924;28;20047;-69
2020/12/19 05:57:18;;;;;;;22.00;10.68;;;6.00;99.90;;;;;;5052350;28;20064;-70
2020/12/19 05:59:47;;;;;;;14.40;10.73;;;6.10;99.90;;;;;;5066431;28;20025;-70
2020/12/19 06:02:15;;;;;;;14.10;10.50;;;6.10;99.90;;;;;;5060750;28;20061;-68
2020/12/19 06:04:44;;;;;;;13.85;10.27;;;6.10;99.90;;;;;;5065149;28;20397;-69
2020/12/19 06:07:10;;;;;;;17.65;9.93;;;6.20;99.90;;;;;;5065246;28;20032;-69
2020/12/19 06:09:36;;;;;;;18.90;10.52;;;6.20;99.90;;;;;;5066043;28;20020;-69
2020/12/19 06:12:09;;;;;;;13.18;9.70;;;6.20;99.90;;;;;;5062573;28;20381;-70
2020/12/19 06:14:40;;;;;;;14.32;10.32;;;6.20;99.90;;;;;;5060714;28;20560;-70
2020/12/19 06:17:15;;;;;;;12.88;10.35;;;6.20;99.90;;;;;;5060075;28;20021;-68
2020/12/19 06:19:43;;;;;;;17.23;10.10;;;6.20;99.90;;;;;;5053679;28;20477;-68
2020/12/19 06:22:09;;;;;;;19.17;10.52;;;6.20;99.90;;;;;;5063535;28;20020;-69
2020/12/19 06:24:46;;;;;;;15.57;9.63;;;6.20;99.90;;;;;;5055159;28;20054;-69
2020/12/19 06:27:23;;;;;;;15.30;10.82;;;6.10;99.90;;;;;;5062915;28;20032;-69
2020/12/19 06:29:50;;;;;;;18.73;11.40;;;6.10;99.90;;;;;;5057061;28;20029;-69
2020/12/19 06:32:20;;;;;;;14.55;10.98;;;6.10;99.90;;;;;;5063897;28;20476;-69
2020/12/19 06:35:09;;;;;;;14.07;10.93;;;6.10;99.90;;;;;;5059029;28;20523;-69
2020/12/19 06:37:37;;;;;;;21.73;11.00;;;6.10;99.90;;;;;;5059190;28;20045;-69
2020/12/19 06:40:18;;;;;;;20.20;11.80;;;6.10;99.90;;;;;;5059666;28;20025;-70
2020/12/19 06:42:45;;;;;;;15.95;10.90;;;6.10;99.90;;;;;;5067895;28;20119;-69
2020/12/19 06:45:24;;;;;;;15.73;11.32;;;6.10;99.90;;;;;;5069178;28;20477;-71
2020/12/19 06:47:50;;;;;;;16.05;10.88;;;6.10;99.90;;;;;;5061621;28;20492;-69
2020/12/19 06:50:17;;;;;;;17.42;10.73;;;6.20;99.90;;;;;;5061089;28;20025;-69
2020/12/19 06:52:53;;;;;;;17.20;11.73;;;6.30;99.90;;;;;;5066503;28;20104;-70
2020/12/19 06:55:26;;;;;;;15.98;11.15;;;6.30;99.90;;;;;;5068345;28;20193;-70
2020/12/19 06:57:56;;;;;;;15.95;11.98;;;6.30;99.90;;;;;;5066508;28;20040;-69
2020/12/19 07:00:29;;;;;;;17.27;11.68;;;6.40;99.90;;;;;;5071694;28;20029;-69
2020/12/19 07:02:57;;;;;;;16.33;11.57;;;6.40;99.90;;;;;;5067843;28;20060;-70
2020/12/19 07:05:28;;;;;;;17.30;11.23;;;6.40;99.90;;;;;;5064608;28;20040;-68
2020/12/19 07:08:14;;;;;;;17.95;11.93;;;6.50;99.90;;;;;;5063594;28;20131;-68
2020/12/19 07:10:39;;;;;;;18.83;12.35;;;6.50;99.90;;;;;;5063182;28;20166;-68
2020/12/19 07:13:05;;;;;;;24.92;11.70;;;6.40;99.90;;;;;;5066465;28;20111;-69
2020/12/19 07:15:51;;;;;;;18.98;12.43;;;6.40;99.90;;;;;;5069102;28;20035;-69
2020/12/19 07:18:33;;;;;;;19.20;12.45;;;6.40;99.90;;;;;;5063704;28;20040;-69
2020/12/19 07:21:05;;;;;;;20.17;10.93;;;6.40;99.90;;;;;;5063320;28;20025;-69
2020/12/19 07:23:32;;;;;;;17.73;11.63;;;6.40;99.90;;;;;;5060945;28;20115;-69
2020/12/19 07:25:58;;;;;;;17.75;12.25;;;6.30;99.90;;;;;;5067414;28;20025;-69
2020/12/19 07:28:24;;;;;;;22.48;12.93;;;6.30;99.90;;;;;;5063648;28;20033;-70
2020/12/19 07:30:50;;;;;;;19.52;11.95;;;6.30;99.90;;;;;;5062667;28;20047;-69
2020/12/19 07:33:16;;;;;;;21.73;11.98;;;6.20;99.90;;;;;;5072145;28;20024;-68
2020/12/19 07:35:41;;;;;;;24.13;13.40;;;6.20;99.90;;;;;;5074643;28;20142;-69
2020/12/19 07:38:07;;;;;;;22.60;12.90;;;6.30;99.90;;;;;;5078924;28;20169;-67
2020/12/19 07:40:32;;;;;;;24.38;13.80;;;6.20;99.90;;;;;;5078822;28;20032;-69
2020/12/19 07:43:05;;;;;;;18.83;12.15;;;6.30;99.90;;;;;;5083389;28;20035;-68
2020/12/19 07:45:31;;;;;;;18.05;12.40;;;6.30;99.90;;;;;;5088897;28;20102;-68
2020/12/19 07:47:57;;;;;;;26.13;14.20;;;6.30;99.90;;;;;;5083679;28;20043;-70
2020/12/19 07:50:27;;;;;;;17.42;12.15;;;6.30;99.90;;;;;;5081172;28;20054;-70
2020/12/19 07:53:06;;;;;;;24.08;13.10;;;6.30;99.90;;;;;;5078656;28;20034;-69
2020/12/19 07:55:33;;;;;;;18.75;11.95;;;6.40;99.90;;;;;;5078628;28;20028;-69
2020/12/19 07:58:00;;;;;;;21.30;13.38;;;6.40;99.90;;;;;;5086488;28;20027;-70
2020/12/19 08:00:26;;;;;;;21.92;13.10;;;6.40;99.90;;;;;;5072359;28;20032;-69
2020/12/19 08:02:52;;;;;;;20.35;13.52;;;6.40;99.90;;;;;;5076739;28;20104;-69
2020/12/19 08:05:18;;;;;;;19.95;12.98;;;6.40;99.90;;;;;;5080361;28;20085;-69
2020/12/19 08:07:44;;;;;;;22.05;13.93;;;6.40;99.90;;;;;;5070464;28;20079;-70
2020/12/19 08:10:11;;;;;;;22.30;13.02;;;6.50;99.90;;;;;;5075606;28;20043;-70
2020/12/19 08:12:39;;;;;;;23.90;13.93;;;6.50;99.90;;;;;;5086563;28;20020;-70
2020/12/19 08:15:07;;;;;;;20.77;13.82;;;6.60;99.90;;;;;;5075320;28;20436;-69
2020/12/19 08:17:37;;;;;;;21.75;13.30;;;6.70;99.90;;;;;;5075800;28;20029;-70
2020/12/19 08:20:03;;;;;;;21.60;12.98;;;6.70;99.90;;;;;;5080554;28;20123;-69
2020/12/19 08:22:30;;;;;;;20.77;12.70;;;6.80;99.90;;;;;;5083433;28;20028;-68
2020/12/19 08:24:56;;;;;;;22.90;13.10;;;6.80;99.90;;;;;;5082326;28;20491;-70
2020/12/19 08:27:33;;;;;;;20.17;12.43;;;6.90;99.90;;;;;;5079671;28;20489;-69
2020/12/19 08:30:41;;;;;;;20.75;13.13;;;7.00;99.90;;;;;;5086130;28;20484;-68
2020/12/19 08:33:08;;;;;;;19.13;12.45;;;7.00;99.90;;;;;;5038065;28;20039;-70
2020/12/19 08:35:44;;;;;;;19.55;12.80;;;7.10;99.90;;;;;;5087007;28;20020;-68
2020/12/19 08:38:11;;;;;;;16.92;12.18;;;7.10;99.90;;;;;;5087737;28;20105;-68
2020/12/19 08:40:45;;;;;;;20.90;12.27;;;7.20;99.90;;;;;;5090630;28;20016;-69
2020/12/19 08:43:12;;;;;;;21.40;13.00;;;7.20;99.90;;;;;;5080868;28;20050;-69
2020/12/19 08:45:40;;;;;;;18.60;12.18;;;7.30;99.90;;;;;;5073275;28;20107;-68
2020/12/19 08:48:19;;;;;;;20.33;12.35;;;7.40;99.90;;;;;;5078188;28;20041;-67
2020/12/19 08:50:46;;;;;;;20.15;12.82;;;7.50;99.90;;;;;;5057107;28;20029;-69
2020/12/19 08:53:20;;;;;;;24.70;12.98;;;7.50;99.90;;;;;;5058294;28;20028;-69
2020/12/19 08:55:46;;;;;;;20.30;12.82;;;7.60;99.90;;;;;;5069862;28;20028;-69
2020/12/19 08:58:22;;;;;;;16.00;11.88;;;7.60;99.90;;;;;;5078954;28;20495;-67
2020/12/19 09:00:48;;;;;;;20.73;11.65;;;7.70;99.90;;;;;;5064661;28;20029;-68
2020/12/19 09:03:14;;;;;;;20.17;12.63;;;7.80;99.90;;;;;;5076588;28;20113;-68
2020/12/19 09:05:44;;;;;;;19.10;12.30;;;7.80;99.90;;;;;;5066876;28;20407;-68
2020/12/19 09:08:11;;;;;;;17.88;11.95;;;7.90;99.90;;;;;;5084033;28;20521;-69
2020/12/19 09:10:38;;;;;;;18.50;12.27;;;7.90;99.90;;;;;;5079353;28;20078;-69
2020/12/19 09:13:20;;;;;;;29.35;12.23;;;7.90;99.90;;;;;;5064875;28;20025;-70
2020/12/19 09:15:46;;;;;;;18.95;11.70;;;8.00;99.90;;;;;;5062820;28;20029;-69
2020/12/19 09:18:17;;;;;;;21.33;11.63;;;8.00;99.90;;;;;;5059900;28;20032;-69
2020/12/19 09:20:44;;;;;;;16.17;11.48;;;8.10;99.90;;;;;;5062747;28;20036;-69
2020/12/19 09:23:10;;;;;;;17.80;11.70;;;8.20;99.90;;;;;;5062485;28;20029;-70
2020/12/19 09:25:36;;;;;;;18.38;11.05;;;8.30;99.90;;;;;;5068690;28;20027;-68
2020/12/19 09:28:02;;;;;;;19.73;11.70;;;8.40;99.90;;;;;;5062253;28;20045;-69
2020/12/19 09:30:27;;;;;;;14.90;11.05;;;8.40;99.90;;;;;;5057320;28;20029;-68
2020/12/19 09:32:53;;;;;;;17.85;10.85;;;8.50;99.90;;;;;;5062493;28;20063;-69
2020/12/19 09:35:18;;;;;;;16.48;10.27;;;8.50;99.90;;;;;;5064613;28;20119;-70
2020/12/19 09:37:44;;;;;;;16.60;11.23;;;8.50;99.90;;;;;;5060729;28;20048;-69
2020/12/19 09:40:09;;;;;;;14.15;9.80;;;8.60;99.90;;;;;;5062762;28;20108;-68
2020/12/19 09:42:35;;;;;;;15.57;10.93;;;8.60;99.90;;;;;;5063275;28;20025;-69
2020/12/19 09:45:00;;;;;;;14.57;10.57;;;8.70;99.90;;;;;;5058483;28;20028;-69
2020/12/19 09:47:26;;;;;;;16.55;9.73;;;8.70;99.90;;;;;;5063832;28;20036;-69
2020/12/19 09:49:51;;;;;;;13.20;9.77;;;8.80;99.90;;;;;;5066539;28;20028;-68
2020/12/19 09:52:17;;;;;;;17.42;10.60;;;8.80;99.90;;;;;;5071476;28;20107;-70
2020/12/19 09:54:42;;;;;;;16.48;10.27;;;8.80;99.90;;;;;;5060040;28;20024;-69
2020/12/19 09:57:08;;;;;;;11.27;9.57;;;8.80;99.90;;;;;;5069435;28;20052;-69
2020/12/19 09:59:33;;;;;;;15.55;10.07;;;8.90;99.90;;;;;;5058451;28;20032;-69
2020/12/19 10:01:59;;;;;;;15.02;9.88;;;8.90;99.90;;;;;;5075778;28;20036;-69
2020/12/19 10:04:24;;;;;;;13.43;9.43;;;8.90;99.90;;;;;;5082967;28;20027;-70
2020/12/19 10:06:51;;;;;;;14.77;9.75;;;9.00;99.90;;;;;;5060580;28;20047;-68
2020/12/19 10:09:16;;;;;;;11.80;9.23;;;9.00;99.90;;;;;;5072614;28;20590;-70
2020/12/19 10:11:42;;;;;;;16.42;9.95;;;9.00;99.90;;;;;;5072249;28;20025;-68
2020/12/19 10:14:08;;;;;;;12.27;9.40;;;9.00;99.90;;;;;;5062476;28;20075;-68
2020/12/19 10:16:33;;;;;;;12.23;9.10;;;9.10;99.90;;;;;;5077130;28;20035;-69
2020/12/19 10:18:59;;;;;;;12.55;9.68;;;9.10;99.90;;;;;;5066904;28;20021;-69
2020/12/19 10:21:24;;;;;;;12.32;10.15;;;9.20;99.90;;;;;;5057833;28;20029;-68
2020/12/19 10:23:50;;;;;;;12.32;9.00;;;9.20;99.90;;;;;;5065507;28;20052;-66
2020/12/19 10:26:15;;;;;;;10.18;8.98;;;9.30;99.90;;;;;;5073634;28;20070;-68
2020/12/19 10:28:41;;;;;;;11.98;9.50;;;9.30;99.90;;;;;;5081190;28;20124;-68
2020/12/19 10:31:06;;;;;;;12.13;8.77;;;9.30;99.90;;;;;;5086941;28;20443;-68
2020/12/19 10:33:32;;;;;;;12.82;8.82;;;9.40;99.90;;;;;;5079866;28;20094;-67
2020/12/19 10:35:57;;;;;;;10.68;8.07;;;9.40;99.90;;;;;;5088680;28;20060;-68
2020/12/19 10:38:23;;;;;;;9.82;8.13;;;9.40;99.90;;;;;;5081727;28;20053;-67
2020/12/19 10:40:48;;;;;;;11.18;7.72;;;9.50;99.90;;;;;;5080624;28;20029;-67
2020/12/19 10:43:14;;;;;;;13.75;7.22;;;9.50;99.90;;;;;;5083617;28;20024;-69
2020/12/19 10:45:39;;;;;;;9.98;7.47;;;9.60;99.90;;;;;;5082898;28;20020;-68
2020/12/19 10:48:05;;;;;;;10.25;6.60;;;9.70;99.90;;;;;;5059922;28;20036;-67
2020/12/19 10:50:30;;;;;;;11.48;6.70;;;9.70;99.90;;;;;;5071401;28;20016;-68
2020/12/19 10:52:56;;;;;;;8.75;6.10;;;9.80;99.90;;;;;;5074245;28;20028;-67
2020/12/19 10:55:22;;;;;;;7.07;5.70;;;9.80;99.90;;;;;;5073602;28;20024;-67
2020/12/19 10:57:47;;;;;;;7.93;6.70;;;9.90;99.90;;;;;;5074536;28;20028;-68
2020/12/19 11:00:13;;;;;;;8.63;6.15;;;10.00;99.90;;;;;;5074398;28;20028;-70
2020/12/19 11:02:39;;;;;;;5.95;5.28;;;10.10;99.90;;;;;;5073568;28;20025;-68
2020/12/19 11:05:04;;;;;;;7.45;4.97;;;10.20;99.90;;;;;;5076395;28;20116;-68
2020/12/19 11:07:30;;;;;;;5.82;4.55;;;10.40;99.90;;;;;;5097844;28;20393;-68
2020/12/19 11:09:55;;;;;;;5.30;4.80;;;10.50;99.90;;;;;;5072871;28;20073;-69
2020/12/19 11:12:21;;;;;;;4.80;4.28;;;10.50;99.90;;;;;;5073605;28;20020;-69
2020/12/19 11:14:47;;;;;;;5.13;4.10;;;10.60;99.90;;;;;;5088947;28;20093;-69
2020/12/19 11:17:12;;;;;;;5.13;4.10;;;10.60;99.90;;;;;;5081842;28;20024;-68
2020/12/19 11:19:38;;;;;;;6.45;4.47;;;10.60;99.90;;;;;;5073621;28;20469;-68
2020/12/19 11:22:04;;;;;;;6.30;4.43;;;10.70;99.90;;;;;;5072864;28;20024;-67
2020/12/19 11:24:29;;;;;;;6.70;4.63;;;10.70;99.90;;;;;;5079296;28;20472;-69
2020/12/19 11:26:55;;;;;;;6.55;4.47;;;10.80;99.90;;;;;;5072065;28;20479;-68
2020/12/19 11:29:21;;;;;;;7.20;4.25;;;10.80;99.90;;;;;;5074049;28;20021;-68
2020/12/19 11:31:48;;;;;;;4.78;4.30;;;10.80;99.90;;;;;;5075921;28;20070;-69
2020/12/19 11:34:14;;;;;;;5.20;4.05;;;10.70;99.90;;;;;;5076524;28;20028;-69
2020/12/19 11:36:40;;;;;;;5.75;4.40;;;10.70;99.90;;;;;;5074236;28;20081;-69
2020/12/19 11:39:11;;;;;;;6.20;4.00;;;10.70;99.90;;;;;;5072894;28;20194;-69
2020/12/19 11:41:41;;;;;;;9.38;4.43;;;10.80;99.90;;;;;;5073485;28;20028;-68
2020/12/19 11:44:11;;;;;;;7.22;4.00;;;10.80;99.90;;;;;;5073454;28;20024;-68
2020/12/19 11:46:37;;;;;;;5.07;3.95;;;10.80;99.90;;;;;;5067403;28;20442;-68
2020/12/19 11:49:03;;;;;;;6.00;4.72;;;10.80;99.90;;;;;;5063545;28;20060;-69
2020/12/19 11:51:30;;;;;;;5.93;4.35;;;10.80;99.90;;;;;;5068484;28;20075;-70
2020/12/19 11:53:56;;;;;;;5.00;3.63;;;10.90;99.90;;;;;;5084515;28;20038;-69
2020/12/19 11:56:22;;;;;;;5.80;3.90;;;10.90;99.90;;;;;;5075124;28;20029;-69
2020/12/19 11:58:47;;;;;;;4.50;3.75;;;10.80;99.90;;;;;;5072773;28;20166;-69
2020/12/19 12:01:13;;;;;;;13.82;5.38;;;10.90;99.90;;;;;;5083218;28;20023;-69
2020/12/19 12:03:38;;;;;;;5.68;4.40;;;10.80;99.90;;;;;;5081363;28;20503;-69
2020/12/19 12:06:04;;;;;;;6.43;4.05;;;10.90;99.90;;;;;;5084231;28;20024;-70
2020/12/19 12:08:29;;;;;;;4.78;4.05;;;10.90;99.90;;;;;;5091621;28;20540;-68
2020/12/19 12:10:55;;;;;;;7.03;4.80;;;10.90;99.90;;;;;;5090035;28;20012;-68
2020/12/19 12:13:21;;;;;;;4.38;3.97;;;10.80;99.90;;;;;;5091469;28;20494;-69
2020/12/19 12:15:46;;;;;;;5.50;3.70;;;10.80;99.90;;;;;;5089559;28;20043;-69
2020/12/19 12:18:11;;;;;;;7.88;3.45;;;10.80;99.90;;;;;;5087437;28;20070;-69
2020/12/19 12:20:37;;;;;;;7.68;4.35;;;10.80;99.90;;;;;;5089549;28;20020;-68
2020/12/19 12:23:02;;;;;;;5.00;3.53;;;10.80;99.90;;;;;;5079868;28;20033;-70
2020/12/19 12:25:28;;;;;;;4.55;4.10;;;10.80;99.90;;;;;;5075321;28;20020;-69
2020/12/19 12:27:53;;;;;;;6.65;3.80;;;10.70;99.90;;;;;;5078180;28;20060;-68
2020/12/19 12:30:19;;;;;;;4.57;3.67;;;10.70;99.90;;;;;;5072226;28;20028;-69
2020/12/19 12:32:45;;;;;;;6.88;4.28;;;10.70;99.90;;;;;;5071608;28;20024;-69
2020/12/19 12:35:11;;;;;;;4.65;3.85;;;10.70;99.90;;;;;;5071868;28;20016;-69
2020/12/19 12:37:36;;;;;;;4.75;3.80;;;10.70;99.90;;;;;;5071596;28;20048;-69
2020/12/19 12:40:03;;;;;;;4.80;3.20;;;10.70;99.90;;;;;;5072061;28;20099;-68
2020/12/19 12:42:28;;;;;;;3.35;3.13;;;10.70;99.90;;;;;;5071208;28;20040;-69